• Join FlightAware (Why Join?)
  • Login
  • US Flag 
01:50AM EDT


 

Airport Tracker/Info


-or-


 

Live Flight TrackerFlight Track Log ✈ SKW6492 ✈ 25-Oct-2013 ✈ KDEN - KCOD

Flight Track Log - Related Links

Times and Time Zones

All times are in EDT time to prevent confusion due to time zone crossing. See the SKW6492 flight status page for this flight to view local times or setup timezone preferences in your user account.

Time Position Orientation Groundspeed Altitude Reporting Facility
EDT Latitude Longitude Course Direction KTS MPH feet Rate Location/Type
09:34PM 39.9167 -104.6833 346° North 168 193 6,500  Level Denver TRACON
09:35PM 39.9667 -104.6833 360° North 222 255 8,200 1,860 Climbing Denver TRACON
09:36PM 40.0189 -104.6947 351° North 242 278 9,800 1,800 Climbing Denver Center
09:37PM 40.2117 -104.9739 346° North  Level Estimated
09:37PM 40.0953 -104.7086 352° North 274 315 11,500  Level Denver Center
09:38PM 40.2991 -105.0496 348° North  Level Estimated
09:38PM 40.1889 -104.7272 351° North 309 356 13,800  Level Denver Center
09:39PM 40.3865 -105.1255 346° North  Level Estimated
09:39PM 40.2783 -104.7450 351° North 325 374 15,700  Level Denver Center
09:40PM 40.3781 -104.7678 350° North 337 388 17,500 1,620 Climbing Denver Center
09:41PM 40.4764 -104.7867 352° North 355 409 19,100 1,500 Climbing Denver Center
09:42PM 40.5808 -104.8100 350° North 357 411 20,600 1,380 Climbing Denver Center
09:43PM 40.6831 -104.8292 352° North 369 425 22,000 1,200 Climbing Denver Center
09:44PM 40.7747 -104.8467 352° North 357 411 23,100 1,020 Climbing Denver Center
09:45PM 40.8753 -104.8928 341° North 376 433 24,200 1,140 Climbing Denver Center
09:46PM 40.9969 -104.9511 340° North 388 447 25,500 1,200 Climbing Denver Center
09:47PM 41.1042 -105.0053 339° North 393 452 26,700 1,080 Climbing Denver Center
09:48PM 41.2019 -105.0536 340° North 393 452 27,800 1,080 Climbing Denver Center
09:49PM 41.3047 -105.1381 328° Northwest 392 451 29,000 780 Climbing Denver Center
09:50PM 41.3858 -105.2306 319° Northwest 397 457 29,500 480 Climbing Denver Center
09:51PM 41.4689 -105.3233 320° Northwest 405 466 30,000 540 Climbing Denver Center
09:52PM 41.5672 -105.4350 320° Northwest 413 475 30,700 720 Climbing Denver Center
09:53PM 41.6522 -105.5328 319° Northwest 418 481 31,500 600 Climbing Denver Center
09:54PM 41.7489 -105.6425 320° Northwest 410 472 32,000 240 Climbing Denver Center
09:55PM 41.8342 -105.7414 319° Northwest 419 482 32,000  Level Denver Center
09:56PM 41.9375 -105.8594 320° Northwest 432 497 32,000  Level Denver Center
09:57PM 42.0250 -105.9606 319° Northwest 433 498 32,000  Level Denver Center
09:58PM 42.1256 -106.0789 319° Northwest 429 494 32,000  Level Denver Center
09:59PM 42.2125 -106.1808 319° Northwest 431 496 32,000  Level Denver Center
10:00PM 42.3136 -106.2986 319° Northwest 430 495 32,000  Level Denver Center
10:01PM 42.4006 -106.4006 319° Northwest 431 496 32,000  Level Denver Center
10:02PM 42.4872 -106.5039 319° Northwest 433 498 32,000  Level Denver Center
10:03PM 42.5878 -106.6219 319° Northwest 428 493 32,000  Level Denver Center
10:04PM 42.6736 -106.7242 319° Northwest 427 491 32,000  Level Denver Center
10:06PM 42.7736 -106.8428 319° Northwest 427 491 32,000  Level Denver Center
10:07PM 42.8583 -106.9461 318° Northwest 426 490 32,000  Level Denver Center
10:07PM 42.9283 -107.0322 318° Northwest 425 489 32,000  Level Salt Lake Center
10:08PM 43.0089 -107.1281 319° Northwest 425 489 32,000  Level Salt Lake Center
10:09PM 43.1144 -107.2569 318° Northwest 425 489 32,000  Level Salt Lake Center
10:10PM 43.2019 -107.3636 318° Northwest 423 487 32,000  Level Salt Lake Center
10:11PM 43.2892 -107.4703 318° Northwest 421 484 32,000  Level Salt Lake Center
10:12PM 43.3794 -107.5742 320° Northwest 423 487 32,000  Level Salt Lake Center
10:13PM 43.4781 -107.6606 328° Northwest 420 483 32,000  Level Salt Lake Center
10:14PM 43.5761 -107.7458 328° Northwest 419 482 32,000 -120 Level Salt Lake Center
10:16PM 43.6736 -107.8361 326° Northwest 421 484 31,800 -1,500 Descending Salt Lake Center
10:17PM 43.7758 -107.9292 327° Northwest 436 502 29,000 -3,060 Descending Salt Lake Center
10:18PM 43.9003 -108.0444 326° Northwest 447 514 25,600 -3,120 Descending Salt Lake Center
10:19PM 44.0019 -108.1369 327° Northwest 437 503 22,700 -2,880 Descending Salt Lake Center
10:20PM 44.1031 -108.2292 327° Northwest 435 501 19,800 -2,640 Descending Salt Lake Center
10:21PM 44.1978 -108.3181 326° Northwest 425 489 17,400 -2,460 Descending Salt Lake Center
10:22PM 44.2872 -108.4003 327° Northwest 408 470 14,800 -2,340 Descending Salt Lake Center
10:23PM 44.3700 -108.4783 326° Northwest 386 444 12,700 -2,040 Descending Salt Lake Center
10:24PM 44.4494 -108.5514 327° Northwest 365 420 10,700 -1,260 Descending Salt Lake Center
10:25PM 44.5117 -108.6086 327° Northwest 305 351 10,200 -660 Descending Salt Lake Center
10:26PM 44.5681 -108.6625 326° Northwest 265 305 9,400 -840 Descending Salt Lake Center
10:27PM 44.6178 -108.7139 324° Northwest 244 281 8,500 -720 Descending Salt Lake Center
10:28PM 44.6519 -108.7778 307° West 214 246 8,000 -540 Descending Salt Lake Center
10:29PM 44.6258 -108.8400 239° Southwest 194 223 7,500 -360 Descending Salt Lake Center
10:30PM 44.5953 -108.8931 231° Southwest 185 213 7,300 -540 Descending Salt Lake Center
10:31PM 44.5692 -108.9394 232° Southwest 170 196 6,500 -780 Descending Salt Lake Center
10:32PM 44.5411 -108.9883 231° Southwest 160 184 5,800 -720 Descending Salt Lake Center